sensor_id;sensor_type;location;lat;lon;timestamp;P1;durP1;ratioP1;P2;durP2;ratioP2
25207;SDS011;13153;52.316;21.166;2022-12-07T00:01:27;54.05;;;28.88;;
25207;SDS011;13153;52.316;21.166;2022-12-07T00:03:56;49.15;;;26.95;;
25207;SDS011;13153;52.316;21.166;2022-12-07T00:06:34;46.70;;;25.70;;
25207;SDS011;13153;52.316;21.166;2022-12-07T00:09:16;43.22;;;24.05;;
25207;SDS011;13153;52.316;21.166;2022-12-07T00:11:43;40.08;;;22.98;;
25207;SDS011;13153;52.316;21.166;2022-12-07T00:14:13;42.42;;;23.20;;
25207;SDS011;13153;52.316;21.166;2022-12-07T00:16:41;40.50;;;23.48;;
25207;SDS011;13153;52.316;21.166;2022-12-07T00:19:08;39.78;;;23.58;;
25207;SDS011;13153;52.316;21.166;2022-12-07T00:21:37;41.47;;;23.15;;
25207;SDS011;13153;52.316;21.166;2022-12-07T00:24:03;38.22;;;23.15;;
25207;SDS011;13153;52.316;21.166;2022-12-07T00:26:31;35.58;;;21.30;;
25207;SDS011;13153;52.316;21.166;2022-12-07T00:29:02;36.85;;;21.60;;
25207;SDS011;13153;52.316;21.166;2022-12-07T00:31:36;35.85;;;20.95;;
25207;SDS011;13153;52.316;21.166;2022-12-07T00:34:06;33.35;;;19.70;;
25207;SDS011;13153;52.316;21.166;2022-12-07T00:36:36;33.50;;;19.48;;
25207;SDS011;13153;52.316;21.166;2022-12-07T00:39:02;31.60;;;18.65;;
25207;SDS011;13153;52.316;21.166;2022-12-07T00:41:28;31.42;;;18.90;;
25207;SDS011;13153;52.316;21.166;2022-12-07T00:43:55;34.72;;;18.10;;
25207;SDS011;13153;52.316;21.166;2022-12-07T00:46:22;30.85;;;18.02;;
25207;SDS011;13153;52.316;21.166;2022-12-07T00:48:49;31.92;;;18.02;;
25207;SDS011;13153;52.316;21.166;2022-12-07T00:51:18;28.42;;;16.80;;
25207;SDS011;13153;52.316;21.166;2022-12-07T00:53:47;28.20;;;16.98;;
25207;SDS011;13153;52.316;21.166;2022-12-07T00:56:20;27.05;;;16.45;;
25207;SDS011;13153;52.316;21.166;2022-12-07T00:58:50;26.55;;;15.95;;
25207;SDS011;13153;52.316;21.166;2022-12-07T01:01:26;26.55;;;16.67;;
25207;SDS011;13153;52.316;21.166;2022-12-07T01:03:55;28.75;;;17.40;;
25207;SDS011;13153;52.316;21.166;2022-12-07T01:06:21;28.85;;;17.50;;
25207;SDS011;13153;52.316;21.166;2022-12-07T01:08:48;27.42;;;17.10;;
25207;SDS011;13153;52.316;21.166;2022-12-07T01:11:16;31.55;;;17.83;;
25207;SDS011;13153;52.316;21.166;2022-12-07T01:13:46;33.65;;;17.58;;
25207;SDS011;13153;52.316;21.166;2022-12-07T01:16:15;32.67;;;17.38;;
25207;SDS011;13153;52.316;21.166;2022-12-07T01:18:43;31.42;;;18.17;;
25207;SDS011;13153;52.316;21.166;2022-12-07T01:21:16;28.00;;;17.05;;
25207;SDS011;13153;52.316;21.166;2022-12-07T01:23:45;30.10;;;16.80;;
25207;SDS011;13153;52.316;21.166;2022-12-07T01:26:13;25.75;;;15.98;;
25207;SDS011;13153;52.316;21.166;2022-12-07T01:28:41;24.95;;;15.23;;
25207;SDS011;13153;52.316;21.166;2022-12-07T01:31:09;26.65;;;16.65;;
25207;SDS011;13153;52.316;21.166;2022-12-07T01:33:40;31.85;;;17.02;;
25207;SDS011;13153;52.316;21.166;2022-12-07T01:36:12;30.05;;;17.65;;
25207;SDS011;13153;52.316;21.166;2022-12-07T01:38:46;32.35;;;18.88;;
25207;SDS011;13153;52.316;21.166;2022-12-07T01:41:16;30.13;;;18.55;;
25207;SDS011;13153;52.316;21.166;2022-12-07T01:46:35;36.42;;;19.80;;
25207;SDS011;13153;52.316;21.166;2022-12-07T01:49:02;35.40;;;20.92;;
25207;SDS011;13153;52.316;21.166;2022-12-07T01:51:31;37.53;;;22.10;;
25207;SDS011;13153;52.316;21.166;2022-12-07T01:53:57;39.80;;;22.85;;
25207;SDS011;13153;52.316;21.166;2022-12-07T01:56:24;42.03;;;23.90;;
25207;SDS011;13153;52.316;21.166;2022-12-07T01:58:53;41.20;;;23.23;;
25207;SDS011;13153;52.316;21.166;2022-12-07T02:01:23;39.45;;;23.10;;
25207;SDS011;13153;52.316;21.166;2022-12-07T02:03:49;45.67;;;24.65;;
25207;SDS011;13153;52.316;21.166;2022-12-07T02:06:16;42.53;;;24.02;;
25207;SDS011;13153;52.316;21.166;2022-12-07T02:08:47;41.25;;;22.90;;
25207;SDS011;13153;52.316;21.166;2022-12-07T02:11:13;41.97;;;24.48;;
25207;SDS011;13153;52.316;21.166;2022-12-07T02:13:41;44.35;;;23.63;;
25207;SDS011;13153;52.316;21.166;2022-12-07T02:22:29;44.85;;;24.63;;
25207;SDS011;13153;52.316;21.166;2022-12-07T02:25:22;42.50;;;24.30;;
25207;SDS011;13153;52.316;21.166;2022-12-07T02:28:05;44.35;;;25.02;;
25207;SDS011;13153;52.316;21.166;2022-12-07T02:30:44;45.80;;;25.48;;
25207;SDS011;13153;52.316;21.166;2022-12-07T02:36:28;48.15;;;25.30;;
25207;SDS011;13153;52.316;21.166;2022-12-07T02:39:07;44.53;;;24.25;;
25207;SDS011;13153;52.316;21.166;2022-12-07T02:41:49;44.45;;;23.85;;
25207;SDS011;13153;52.316;21.166;2022-12-07T02:44:27;39.95;;;21.95;;
25207;SDS011;13153;52.316;21.166;2022-12-07T02:47:07;40.45;;;22.35;;
25207;SDS011;13153;52.316;21.166;2022-12-07T02:49:38;38.55;;;20.75;;
25207;SDS011;13153;52.316;21.166;2022-12-07T02:52:05;36.72;;;20.33;;
25207;SDS011;13153;52.316;21.166;2022-12-07T02:54:31;39.58;;;20.58;;
25207;SDS011;13153;52.316;21.166;2022-12-07T03:02:58;30.48;;;17.92;;
25207;SDS011;13153;52.316;21.166;2022-12-07T03:05:42;27.15;;;16.08;;
25207;SDS011;13153;52.316;21.166;2022-12-07T03:08:26;26.45;;;15.00;;
25207;SDS011;13153;52.316;21.166;2022-12-07T03:11:29;23.30;;;14.77;;
25207;SDS011;13153;52.316;21.166;2022-12-07T03:17:16;24.83;;;14.38;;
25207;SDS011;13153;52.316;21.166;2022-12-07T03:19:57;23.38;;;13.68;;
25207;SDS011;13153;52.316;21.166;2022-12-07T03:22:27;26.30;;;14.15;;
25207;SDS011;13153;52.316;21.166;2022-12-07T03:25:00;25.50;;;14.13;;
25207;SDS011;13153;52.316;21.166;2022-12-07T03:27:37;22.88;;;13.20;;
25207;SDS011;13153;52.316;21.166;2022-12-07T03:30:47;20.63;;;12.50;;
25207;SDS011;13153;52.316;21.166;2022-12-07T03:41:29;21.65;;;12.23;;
25207;SDS011;13153;52.316;21.166;2022-12-07T03:43:59;21.13;;;11.77;;
25207;SDS011;13153;52.316;21.166;2022-12-07T03:54:55;23.92;;;11.77;;
25207;SDS011;13153;52.316;21.166;2022-12-07T03:57:31;18.70;;;10.95;;
25207;SDS011;13153;52.316;21.166;2022-12-07T04:00:00;19.50;;;11.82;;
25207;SDS011;13153;52.316;21.166;2022-12-07T04:02:31;21.67;;;11.45;;
25207;SDS011;13153;52.316;21.166;2022-12-07T04:04:59;19.08;;;11.00;;
25207;SDS011;13153;52.316;21.166;2022-12-07T04:07:25;19.05;;;11.18;;
25207;SDS011;13153;52.316;21.166;2022-12-07T04:09:50;16.83;;;10.45;;
25207;SDS011;13153;52.316;21.166;2022-12-07T04:12:16;18.73;;;10.98;;
25207;SDS011;13153;52.316;21.166;2022-12-07T04:14:42;18.23;;;10.98;;
25207;SDS011;13153;52.316;21.166;2022-12-07T04:17:08;18.23;;;10.50;;
25207;SDS011;13153;52.316;21.166;2022-12-07T04:19:34;16.63;;;10.70;;
25207;SDS011;13153;52.316;21.166;2022-12-07T04:22:01;17.85;;;10.55;;
25207;SDS011;13153;52.316;21.166;2022-12-07T04:24:29;17.88;;;10.57;;
25207;SDS011;13153;52.316;21.166;2022-12-07T04:26:55;17.10;;;10.27;;
25207;SDS011;13153;52.316;21.166;2022-12-07T04:29:21;16.98;;;11.02;;
25207;SDS011;13153;52.316;21.166;2022-12-07T04:31:48;18.13;;;10.60;;
25207;SDS011;13153;52.316;21.166;2022-12-07T04:34:15;18.60;;;11.00;;
25207;SDS011;13153;52.316;21.166;2022-12-07T04:36:42;19.23;;;10.82;;
25207;SDS011;13153;52.316;21.166;2022-12-07T04:39:14;17.13;;;10.63;;
25207;SDS011;13153;52.316;21.166;2022-12-07T04:42:02;17.27;;;11.02;;
25207;SDS011;13153;52.316;21.166;2022-12-07T04:44:29;17.63;;;11.27;;
25207;SDS011;13153;52.316;21.166;2022-12-07T04:46:55;17.85;;;11.10;;
25207;SDS011;13153;52.316;21.166;2022-12-07T04:49:22;17.80;;;11.02;;
25207;SDS011;13153;52.316;21.166;2022-12-07T04:51:49;16.77;;;10.52;;
25207;SDS011;13153;52.316;21.166;2022-12-07T04:54:16;14.95;;;10.07;;
25207;SDS011;13153;52.316;21.166;2022-12-07T04:56:42;16.45;;;10.30;;
25207;SDS011;13153;52.316;21.166;2022-12-07T04:59:09;15.50;;;10.10;;
25207;SDS011;13153;52.316;21.166;2022-12-07T05:01:41;16.73;;;10.48;;
25207;SDS011;13153;52.316;21.166;2022-12-07T05:04:07;17.77;;;10.05;;
25207;SDS011;13153;52.316;21.166;2022-12-07T05:06:33;15.65;;;9.80;;
25207;SDS011;13153;52.316;21.166;2022-12-07T05:09:00;15.00;;;10.15;;
25207;SDS011;13153;52.316;21.166;2022-12-07T05:11:26;15.98;;;9.68;;
25207;SDS011;13153;52.316;21.166;2022-12-07T05:14:12;14.45;;;9.70;;
25207;SDS011;13153;52.316;21.166;2022-12-07T05:16:42;16.10;;;10.05;;
25207;SDS011;13153;52.316;21.166;2022-12-07T05:19:10;16.38;;;10.73;;
25207;SDS011;13153;52.316;21.166;2022-12-07T05:21:36;20.13;;;12.50;;
25207;SDS011;13153;52.316;21.166;2022-12-07T05:24:03;17.30;;;11.02;;
25207;SDS011;13153;52.316;21.166;2022-12-07T05:26:30;16.30;;;10.15;;
25207;SDS011;13153;52.316;21.166;2022-12-07T05:28:56;15.23;;;9.68;;
25207;SDS011;13153;52.316;21.166;2022-12-07T05:31:23;15.10;;;9.77;;
25207;SDS011;13153;52.316;21.166;2022-12-07T05:33:51;16.02;;;10.30;;
25207;SDS011;13153;52.316;21.166;2022-12-07T05:36:16;15.40;;;10.07;;
25207;SDS011;13153;52.316;21.166;2022-12-07T05:38:42;16.00;;;10.02;;
25207;SDS011;13153;52.316;21.166;2022-12-07T05:41:08;29.52;;;15.88;;
25207;SDS011;13153;52.316;21.166;2022-12-07T05:43:58;22.70;;;13.88;;
25207;SDS011;13153;52.316;21.166;2022-12-07T05:46:23;16.33;;;10.60;;
25207;SDS011;13153;52.316;21.166;2022-12-07T05:48:49;12.85;;;9.10;;
25207;SDS011;13153;52.316;21.166;2022-12-07T05:51:15;14.68;;;9.00;;
25207;SDS011;13153;52.316;21.166;2022-12-07T05:53:41;12.35;;;8.73;;
25207;SDS011;13153;52.316;21.166;2022-12-07T05:56:07;14.80;;;9.43;;
25207;SDS011;13153;52.316;21.166;2022-12-07T05:58:33;14.27;;;8.38;;
25207;SDS011;13153;52.316;21.166;2022-12-07T06:01:17;14.47;;;9.27;;
25207;SDS011;13153;52.316;21.166;2022-12-07T06:03:43;13.48;;;8.05;;
25207;SDS011;13153;52.316;21.166;2022-12-07T06:06:09;14.80;;;9.30;;
25207;SDS011;13153;52.316;21.166;2022-12-07T06:08:35;13.75;;;9.15;;
25207;SDS011;13153;52.316;21.166;2022-12-07T06:11:01;14.25;;;9.13;;
25207;SDS011;13153;52.316;21.166;2022-12-07T06:13:45;14.98;;;8.65;;
25207;SDS011;13153;52.316;21.166;2022-12-07T06:16:11;13.63;;;8.90;;
25207;SDS011;13153;52.316;21.166;2022-12-07T06:18:37;13.98;;;9.00;;
25207;SDS011;13153;52.316;21.166;2022-12-07T06:21:02;14.48;;;8.82;;
25207;SDS011;13153;52.316;21.166;2022-12-07T06:23:28;13.57;;;9.13;;
25207;SDS011;13153;52.316;21.166;2022-12-07T06:25:54;17.10;;;9.73;;
25207;SDS011;13153;52.316;21.166;2022-12-07T06:28:20;14.50;;;8.70;;
25207;SDS011;13153;52.316;21.166;2022-12-07T06:30:45;17.33;;;9.82;;
25207;SDS011;13153;52.316;21.166;2022-12-07T06:33:11;18.85;;;10.48;;
25207;SDS011;13153;52.316;21.166;2022-12-07T06:35:37;15.55;;;9.52;;
25207;SDS011;13153;52.316;21.166;2022-12-07T06:38:02;15.52;;;9.18;;
25207;SDS011;13153;52.316;21.166;2022-12-07T06:40:28;12.98;;;8.48;;
25207;SDS011;13153;52.316;21.166;2022-12-07T06:42:54;13.93;;;8.60;;
25207;SDS011;13153;52.316;21.166;2022-12-07T06:45:20;11.90;;;7.70;;
25207;SDS011;13153;52.316;21.166;2022-12-07T06:47:45;15.20;;;8.77;;
25207;SDS011;13153;52.316;21.166;2022-12-07T06:50:11;13.05;;;8.48;;
25207;SDS011;13153;52.316;21.166;2022-12-07T06:52:37;14.38;;;8.45;;
25207;SDS011;13153;52.316;21.166;2022-12-07T06:55:03;15.85;;;8.70;;
25207;SDS011;13153;52.316;21.166;2022-12-07T06:57:29;14.55;;;8.82;;
25207;SDS011;13153;52.316;21.166;2022-12-07T06:59:55;15.68;;;8.38;;
25207;SDS011;13153;52.316;21.166;2022-12-07T07:02:20;13.98;;;8.60;;
25207;SDS011;13153;52.316;21.166;2022-12-07T07:04:46;14.07;;;8.07;;
25207;SDS011;13153;52.316;21.166;2022-12-07T07:07:12;11.35;;;7.60;;
25207;SDS011;13153;52.316;21.166;2022-12-07T07:09:37;13.48;;;7.75;;
25207;SDS011;13153;52.316;21.166;2022-12-07T07:12:03;12.52;;;7.68;;
25207;SDS011;13153;52.316;21.166;2022-12-07T07:14:29;14.50;;;8.10;;
25207;SDS011;13153;52.316;21.166;2022-12-07T07:16:55;16.63;;;8.85;;
25207;SDS011;13153;52.316;21.166;2022-12-07T07:19:20;11.50;;;7.95;;
25207;SDS011;13153;52.316;21.166;2022-12-07T07:21:46;11.90;;;7.85;;
25207;SDS011;13153;52.316;21.166;2022-12-07T07:24:12;14.52;;;8.23;;
25207;SDS011;13153;52.316;21.166;2022-12-07T07:26:38;12.40;;;7.95;;
25207;SDS011;13153;52.316;21.166;2022-12-07T07:29:03;16.10;;;8.18;;
25207;SDS011;13153;52.316;21.166;2022-12-07T07:31:29;11.57;;;7.78;;
25207;SDS011;13153;52.316;21.166;2022-12-07T07:33:55;11.48;;;7.78;;
25207;SDS011;13153;52.316;21.166;2022-12-07T07:36:21;11.80;;;7.80;;
25207;SDS011;13153;52.316;21.166;2022-12-07T07:38:46;13.05;;;8.02;;
25207;SDS011;13153;52.316;21.166;2022-12-07T07:41:12;11.50;;;8.00;;
25207;SDS011;13153;52.316;21.166;2022-12-07T07:43:38;13.90;;;7.93;;
25207;SDS011;13153;52.316;21.166;2022-12-07T07:46:04;13.20;;;7.18;;
25207;SDS011;13153;52.316;21.166;2022-12-07T07:48:29;10.93;;;7.65;;
25207;SDS011;13153;52.316;21.166;2022-12-07T07:50:55;12.60;;;7.97;;
25207;SDS011;13153;52.316;21.166;2022-12-07T07:53:21;14.30;;;8.65;;
25207;SDS011;13153;52.316;21.166;2022-12-07T07:55:53;13.45;;;7.93;;
25207;SDS011;13153;52.316;21.166;2022-12-07T07:58:20;13.35;;;8.30;;
25207;SDS011;13153;52.316;21.166;2022-12-07T08:00:46;15.45;;;8.52;;
25207;SDS011;13153;52.316;21.166;2022-12-07T08:03:12;12.70;;;8.38;;
25207;SDS011;13153;52.316;21.166;2022-12-07T08:05:37;12.23;;;8.50;;
25207;SDS011;13153;52.316;21.166;2022-12-07T08:08:03;13.52;;;9.48;;
25207;SDS011;13153;52.316;21.166;2022-12-07T08:10:29;14.48;;;9.25;;
25207;SDS011;13153;52.316;21.166;2022-12-07T08:12:57;15.38;;;9.68;;
25207;SDS011;13153;52.316;21.166;2022-12-07T08:15:36;17.80;;;10.30;;
25207;SDS011;13153;52.316;21.166;2022-12-07T08:18:04;16.63;;;10.10;;
25207;SDS011;13153;52.316;21.166;2022-12-07T08:20:31;18.15;;;10.90;;
25207;SDS011;13153;52.316;21.166;2022-12-07T08:22:58;17.45;;;10.80;;
25207;SDS011;13153;52.316;21.166;2022-12-07T08:25:24;18.77;;;11.05;;
25207;SDS011;13153;52.316;21.166;2022-12-07T08:27:52;16.40;;;10.50;;
25207;SDS011;13153;52.316;21.166;2022-12-07T08:30:18;18.25;;;12.23;;
25207;SDS011;13153;52.316;21.166;2022-12-07T08:32:44;15.73;;;10.85;;
25207;SDS011;13153;52.316;21.166;2022-12-07T08:35:12;23.95;;;12.10;;
25207;SDS011;13153;52.316;21.166;2022-12-07T08:37:38;19.30;;;12.65;;
25207;SDS011;13153;52.316;21.166;2022-12-07T08:40:04;20.98;;;12.15;;
25207;SDS011;13153;52.316;21.166;2022-12-07T08:42:32;18.75;;;12.05;;
25207;SDS011;13153;52.316;21.166;2022-12-07T08:45:12;19.35;;;12.27;;
25207;SDS011;13153;52.316;21.166;2022-12-07T08:48:01;25.45;;;14.95;;
25207;SDS011;13153;52.316;21.166;2022-12-07T08:50:31;24.70;;;15.02;;
25207;SDS011;13153;52.316;21.166;2022-12-07T08:52:58;29.38;;;16.63;;
25207;SDS011;13153;52.316;21.166;2022-12-07T08:55:25;31.83;;;17.25;;
25207;SDS011;13153;52.316;21.166;2022-12-07T08:57:53;33.83;;;17.33;;
25207;SDS011;13153;52.316;21.166;2022-12-07T09:00:19;32.67;;;17.58;;
25207;SDS011;13153;52.316;21.166;2022-12-07T09:02:45;31.13;;;17.38;;
25207;SDS011;13153;52.316;21.166;2022-12-07T09:05:12;33.75;;;19.25;;
25207;SDS011;13153;52.316;21.166;2022-12-07T09:07:39;35.95;;;18.73;;
25207;SDS011;13153;52.316;21.166;2022-12-07T09:10:09;36.08;;;19.27;;
25207;SDS011;13153;52.316;21.166;2022-12-07T09:12:35;36.38;;;18.95;;
25207;SDS011;13153;52.316;21.166;2022-12-07T09:15:01;37.97;;;19.83;;
25207;SDS011;13153;52.316;21.166;2022-12-07T09:17:27;36.17;;;18.35;;
25207;SDS011;13153;52.316;21.166;2022-12-07T09:19:58;37.25;;;19.67;;
25207;SDS011;13153;52.316;21.166;2022-12-07T09:22:27;36.72;;;18.63;;
25207;SDS011;13153;52.316;21.166;2022-12-07T09:24:58;40.90;;;20.00;;
25207;SDS011;13153;52.316;21.166;2022-12-07T09:27:24;34.15;;;18.83;;
25207;SDS011;13153;52.316;21.166;2022-12-07T09:29:51;34.63;;;19.55;;
25207;SDS011;13153;52.316;21.166;2022-12-07T09:32:17;33.72;;;19.20;;
25207;SDS011;13153;52.316;21.166;2022-12-07T09:34:43;34.50;;;17.88;;
25207;SDS011;13153;52.316;21.166;2022-12-07T09:37:09;33.97;;;18.83;;
25207;SDS011;13153;52.316;21.166;2022-12-07T09:39:37;32.15;;;17.60;;
25207;SDS011;13153;52.316;21.166;2022-12-07T09:42:04;34.08;;;18.55;;
25207;SDS011;13153;52.316;21.166;2022-12-07T09:44:32;33.83;;;17.65;;
25207;SDS011;13153;52.316;21.166;2022-12-07T09:46:59;33.13;;;17.58;;
25207;SDS011;13153;52.316;21.166;2022-12-07T09:49:30;35.28;;;17.67;;
25207;SDS011;13153;52.316;21.166;2022-12-07T09:52:39;33.30;;;16.67;;
25207;SDS011;13153;52.316;21.166;2022-12-07T09:57:19;31.17;;;16.50;;
25207;SDS011;13153;52.316;21.166;2022-12-07T10:00:00;35.47;;;16.38;;
25207;SDS011;13153;52.316;21.166;2022-12-07T10:02:36;28.40;;;16.42;;
25207;SDS011;13153;52.316;21.166;2022-12-07T10:05:19;29.95;;;16.15;;
25207;SDS011;13153;52.316;21.166;2022-12-07T10:07:52;29.90;;;16.05;;
25207;SDS011;13153;52.316;21.166;2022-12-07T10:10:25;35.35;;;16.88;;
25207;SDS011;13153;52.316;21.166;2022-12-07T10:12:59;37.55;;;18.75;;
25207;SDS011;13153;52.316;21.166;2022-12-07T10:18:29;31.90;;;17.88;;
25207;SDS011;13153;52.316;21.166;2022-12-07T10:21:04;33.17;;;17.25;;
25207;SDS011;13153;52.316;21.166;2022-12-07T10:23:39;34.55;;;17.10;;
25207;SDS011;13153;52.316;21.166;2022-12-07T10:26:32;36.50;;;17.25;;
25207;SDS011;13153;52.316;21.166;2022-12-07T10:29:00;33.60;;;17.42;;
25207;SDS011;13153;52.316;21.166;2022-12-07T10:32:03;34.28;;;17.58;;
25207;SDS011;13153;52.316;21.166;2022-12-07T10:37:59;34.92;;;16.20;;
25207;SDS011;13153;52.316;21.166;2022-12-07T10:40:27;32.03;;;16.25;;
25207;SDS011;13153;52.316;21.166;2022-12-07T10:51:57;34.97;;;17.70;;
25207;SDS011;13153;52.316;21.166;2022-12-07T10:57:56;30.02;;;16.27;;
25207;SDS011;13153;52.316;21.166;2022-12-07T11:00:39;29.90;;;15.27;;
25207;SDS011;13153;52.316;21.166;2022-12-07T11:24:11;30.65;;;15.13;;
25207;SDS011;13153;52.316;21.166;2022-12-07T11:29:55;24.40;;;13.70;;
25207;SDS011;13153;52.316;21.166;2022-12-07T11:38:14;25.13;;;14.77;;
25207;SDS011;13153;52.316;21.166;2022-12-07T11:40:45;27.98;;;14.90;;
25207;SDS011;13153;52.316;21.166;2022-12-07T11:45:59;29.08;;;16.10;;
25207;SDS011;13153;52.316;21.166;2022-12-07T11:48:46;28.77;;;16.27;;
25207;SDS011;13153;52.316;21.166;2022-12-07T11:51:23;27.15;;;16.42;;
25207;SDS011;13153;52.316;21.166;2022-12-07T11:53:52;26.10;;;16.77;;
25207;SDS011;13153;52.316;21.166;2022-12-07T11:56:24;25.30;;;15.63;;
25207;SDS011;13153;52.316;21.166;2022-12-07T12:07:00;22.63;;;14.82;;
25207;SDS011;13153;52.316;21.166;2022-12-07T12:09:31;22.85;;;15.27;;
25207;SDS011;13153;52.316;21.166;2022-12-07T12:12:20;24.52;;;15.80;;
25207;SDS011;13153;52.316;21.166;2022-12-07T12:15:16;24.88;;;15.82;;
25207;SDS011;13153;52.316;21.166;2022-12-07T12:21:10;22.90;;;14.77;;
25207;SDS011;13153;52.316;21.166;2022-12-07T12:23:49;23.40;;;15.02;;
25207;SDS011;13153;52.316;21.166;2022-12-07T12:26:31;22.50;;;14.85;;
25207;SDS011;13153;52.316;21.166;2022-12-07T12:29:02;27.05;;;15.63;;
25207;SDS011;13153;52.316;21.166;2022-12-07T12:31:35;34.33;;;15.55;;
25207;SDS011;13153;52.316;21.166;2022-12-07T12:37:14;24.52;;;14.50;;
25207;SDS011;13153;52.316;21.166;2022-12-07T12:42:46;27.10;;;16.50;;
25207;SDS011;13153;52.316;21.166;2022-12-07T12:54:04;26.55;;;15.20;;
25207;SDS011;13153;52.316;21.166;2022-12-07T12:57:21;25.17;;;14.20;;
25207;SDS011;13153;52.316;21.166;2022-12-07T13:18:25;23.80;;;14.73;;
25207;SDS011;13153;52.316;21.166;2022-12-07T13:23:38;23.63;;;14.73;;
25207;SDS011;13153;52.316;21.166;2022-12-07T13:26:17;21.45;;;13.70;;
25207;SDS011;13153;52.316;21.166;2022-12-07T13:29:09;23.27;;;14.63;;
25207;SDS011;13153;52.316;21.166;2022-12-07T13:31:55;22.85;;;14.20;;
25207;SDS011;13153;52.316;21.166;2022-12-07T13:34:32;23.90;;;13.65;;
25207;SDS011;13153;52.316;21.166;2022-12-07T13:39:58;20.23;;;13.10;;
25207;SDS011;13153;52.316;21.166;2022-12-07T13:42:41;19.83;;;12.55;;
25207;SDS011;13153;52.316;21.166;2022-12-07T13:45:25;18.67;;;12.32;;
25207;SDS011;13153;52.316;21.166;2022-12-07T13:48:44;17.92;;;11.13;;
25207;SDS011;13153;52.316;21.166;2022-12-07T13:54:09;17.20;;;11.45;;
25207;SDS011;13153;52.316;21.166;2022-12-07T13:56:38;20.95;;;12.00;;
25207;SDS011;13153;52.316;21.166;2022-12-07T13:59:05;18.30;;;11.57;;
25207;SDS011;13153;52.316;21.166;2022-12-07T14:01:48;18.63;;;11.98;;
25207;SDS011;13153;52.316;21.166;2022-12-07T14:07:19;20.33;;;12.80;;
25207;SDS011;13153;52.316;21.166;2022-12-07T14:09:54;22.98;;;12.63;;
25207;SDS011;13153;52.316;21.166;2022-12-07T14:12:21;23.02;;;13.63;;
25207;SDS011;13153;52.316;21.166;2022-12-07T14:14:50;20.30;;;13.25;;
25207;SDS011;13153;52.316;21.166;2022-12-07T14:17:18;24.13;;;14.80;;
25207;SDS011;13153;52.316;21.166;2022-12-07T14:19:59;21.55;;;13.57;;
25207;SDS011;13153;52.316;21.166;2022-12-07T14:22:28;24.77;;;14.85;;
25207;SDS011;13153;52.316;21.166;2022-12-07T14:27:38;23.50;;;14.95;;
25207;SDS011;13153;52.316;21.166;2022-12-07T14:30:21;30.50;;;17.65;;
25207;SDS011;13153;52.316;21.166;2022-12-07T14:33:13;30.38;;;17.23;;
25207;SDS011;13153;52.316;21.166;2022-12-07T14:35:39;24.02;;;15.18;;
25207;SDS011;13153;52.316;21.166;2022-12-07T14:38:05;24.38;;;15.43;;
25207;SDS011;13153;52.316;21.166;2022-12-07T14:40:31;23.80;;;16.05;;
25207;SDS011;13153;52.316;21.166;2022-12-07T14:43:00;26.80;;;17.00;;
25207;SDS011;13153;52.316;21.166;2022-12-07T14:45:30;26.30;;;16.50;;
25207;SDS011;13153;52.316;21.166;2022-12-07T14:47:56;29.13;;;18.25;;
25207;SDS011;13153;52.316;21.166;2022-12-07T14:50:21;27.42;;;17.50;;
25207;SDS011;13153;52.316;21.166;2022-12-07T14:52:48;30.33;;;18.13;;
25207;SDS011;13153;52.316;21.166;2022-12-07T14:55:24;27.23;;;18.15;;
25207;SDS011;13153;52.316;21.166;2022-12-07T14:57:56;27.50;;;18.08;;
25207;SDS011;13153;52.316;21.166;2022-12-07T15:00:25;26.52;;;19.02;;
25207;SDS011;13153;52.316;21.166;2022-12-07T15:02:53;27.92;;;17.98;;
25207;SDS011;13153;52.316;21.166;2022-12-07T15:05:19;28.00;;;18.20;;
25207;SDS011;13153;52.316;21.166;2022-12-07T15:07:46;26.25;;;17.45;;
25207;SDS011;13153;52.316;21.166;2022-12-07T15:10:23;28.60;;;17.23;;
25207;SDS011;13153;52.316;21.166;2022-12-07T15:12:55;25.75;;;17.10;;
25207;SDS011;13153;52.316;21.166;2022-12-07T15:15:44;26.52;;;16.65;;
25207;SDS011;13153;52.316;21.166;2022-12-07T15:18:12;25.88;;;17.27;;
25207;SDS011;13153;52.316;21.166;2022-12-07T15:20:38;30.52;;;18.50;;
25207;SDS011;13153;52.316;21.166;2022-12-07T15:23:04;33.55;;;19.17;;
25207;SDS011;13153;52.316;21.166;2022-12-07T15:25:30;31.88;;;19.55;;
25207;SDS011;13153;52.316;21.166;2022-12-07T15:27:55;31.30;;;20.58;;
25207;SDS011;13153;52.316;21.166;2022-12-07T15:30:21;35.83;;;21.80;;
25207;SDS011;13153;52.316;21.166;2022-12-07T15:32:50;32.90;;;21.52;;
25207;SDS011;13153;52.316;21.166;2022-12-07T15:35:17;41.25;;;23.63;;
25207;SDS011;13153;52.316;21.166;2022-12-07T15:37:44;37.17;;;22.08;;
25207;SDS011;13153;52.316;21.166;2022-12-07T15:40:11;36.60;;;21.13;;
25207;SDS011;13153;52.316;21.166;2022-12-07T15:42:37;33.13;;;20.98;;
25207;SDS011;13153;52.316;21.166;2022-12-07T15:45:04;33.60;;;21.52;;
25207;SDS011;13153;52.316;21.166;2022-12-07T15:47:33;34.33;;;20.40;;
25207;SDS011;13153;52.316;21.166;2022-12-07T15:50:06;33.08;;;19.27;;
25207;SDS011;13153;52.316;21.166;2022-12-07T15:52:38;34.60;;;20.63;;
25207;SDS011;13153;52.316;21.166;2022-12-07T15:55:05;32.22;;;19.65;;
25207;SDS011;13153;52.316;21.166;2022-12-07T15:57:31;33.85;;;20.08;;
25207;SDS011;13153;52.316;21.166;2022-12-07T16:00:02;35.05;;;21.42;;
25207;SDS011;13153;52.316;21.166;2022-12-07T16:02:36;36.55;;;21.45;;
25207;SDS011;13153;52.316;21.166;2022-12-07T16:05:02;34.30;;;20.33;;
25207;SDS011;13153;52.316;21.166;2022-12-07T16:07:28;30.08;;;19.45;;
25207;SDS011;13153;52.316;21.166;2022-12-07T16:09:55;32.72;;;18.95;;
25207;SDS011;13153;52.316;21.166;2022-12-07T16:12:21;37.38;;;20.90;;
25207;SDS011;13153;52.316;21.166;2022-12-07T16:14:47;35.13;;;20.27;;
25207;SDS011;13153;52.316;21.166;2022-12-07T16:17:13;34.60;;;19.85;;
25207;SDS011;13153;52.316;21.166;2022-12-07T16:19:38;33.65;;;19.50;;
25207;SDS011;13153;52.316;21.166;2022-12-07T16:22:04;34.25;;;19.83;;
25207;SDS011;13153;52.316;21.166;2022-12-07T16:24:30;28.63;;;18.90;;
25207;SDS011;13153;52.316;21.166;2022-12-07T16:26:57;30.92;;;19.48;;
25207;SDS011;13153;52.316;21.166;2022-12-07T16:29:23;31.77;;;19.70;;
25207;SDS011;13153;52.316;21.166;2022-12-07T16:31:50;31.13;;;18.95;;
25207;SDS011;13153;52.316;21.166;2022-12-07T16:34:16;32.15;;;18.75;;
25207;SDS011;13153;52.316;21.166;2022-12-07T16:36:43;32.90;;;19.98;;
25207;SDS011;13153;52.316;21.166;2022-12-07T16:39:09;30.15;;;19.50;;
25207;SDS011;13153;52.316;21.166;2022-12-07T16:41:35;31.15;;;19.45;;
25207;SDS011;13153;52.316;21.166;2022-12-07T16:44:02;31.27;;;18.60;;
25207;SDS011;13153;52.316;21.166;2022-12-07T16:46:34;31.42;;;19.55;;
25207;SDS011;13153;52.316;21.166;2022-12-07T16:49:02;29.13;;;18.48;;
25207;SDS011;13153;52.316;21.166;2022-12-07T16:51:28;35.28;;;20.10;;
25207;SDS011;13153;52.316;21.166;2022-12-07T16:53:54;32.53;;;19.70;;
25207;SDS011;13153;52.316;21.166;2022-12-07T16:56:20;35.88;;;20.92;;
25207;SDS011;13153;52.316;21.166;2022-12-07T16:58:46;32.90;;;19.90;;
25207;SDS011;13153;52.316;21.166;2022-12-07T17:01:15;32.70;;;20.40;;